Time;durP1;ratioP1;P1;durP2;ratioP2;P2;SDS_P1;SDS_P2;PMS_P1;PMS_P2;Temp;Humidity;BMP_temperature;BMP_pressure;BME280_temperature;BME280_humidity;BME280_pressure;Samples;Min_cycle;Max_cycle;Signal;HPM_P1;HPM_P2
2022/12/17 17:29:22;;;;;;;13.70;10.97;;;;;;;0.92;100.00;99179.25;1845875;76;28553;-74
2022/12/17 17:31:49;;;;;;;14.63;11.97;;;;;;;0.87;100.00;99189.93;1820240;78;20979;-76
2022/12/17 17:34:15;;;;;;;12.23;11.00;;;;;;;0.89;100.00;99181.80;1818984;78;22142;-74
2022/12/17 17:36:42;;;;;;;11.83;10.23;;;;;;;0.94;100.00;99203.70;1804283;78;20973;-76
2022/12/17 17:39:09;;;;;;;16.73;12.63;;;;;;;0.99;100.00;99194.66;1804008;78;20927;-75
2022/12/17 17:41:36;;;;;;;14.73;13.37;;;;;;;1.05;100.00;99193.35;1805855;79;20922;-75
2022/12/17 17:44:11;;;;;;;14.65;12.93;;;;;;;1.11;100.00;99211.06;1805428;78;20989;-80
2022/12/17 17:46:38;;;;;;;14.15;12.68;;;;;;;1.18;100.00;99201.82;1805492;78;22087;-82
2022/12/17 17:49:06;;;;;;;12.68;11.45;;;;;;;1.25;100.00;99212.72;1795420;79;21599;-76
2022/12/17 17:51:36;;;;;;;12.05;10.90;;;;;;;1.30;100.00;99197.03;1792570;78;21558;-76
2022/12/17 17:54:03;;;;;;;13.08;11.30;;;;;;;1.35;100.00;99205.70;1801314;78;21065;-72
2022/12/17 17:56:32;;;;;;;10.82;9.60;;;;;;;1.36;100.00;99215.28;1798468;78;21097;-74
2022/12/17 17:59:04;;;;;;;10.30;9.30;;;;;;;1.38;100.00;99229.66;1800851;79;21116;-76
2022/12/17 18:01:38;;;;;;;9.35;8.45;;;;;;;1.38;100.00;99205.31;1776581;78;21024;-81
2022/12/17 18:04:06;;;;;;;9.33;8.43;;;;;;;1.42;100.00;99201.74;1804066;78;21726;-87
2022/12/17 18:06:36;;;;;;;8.23;7.20;;;;;;;1.44;100.00;99206.34;1798474;78;20928;-85
2022/12/17 18:09:02;;;;;;;11.08;7.95;;;;;;;1.46;100.00;99219.68;1790315;78;21066;-84
2022/12/17 18:11:29;;;;;;;7.97;6.25;;;;;;;1.48;100.00;99208.38;1802029;79;21769;-81
2022/12/17 18:13:56;;;;;;;7.72;6.40;;;;;;;1.48;100.00;99228.77;1816775;78;22151;-85
2022/12/17 18:16:29;;;;;;;7.05;5.92;;;;;;;1.47;100.00;99227.94;1806112;78;21070;-82
2022/12/17 18:18:58;;;;;;;5.95;4.83;;;;;;;1.49;100.00;99251.06;1804748;78;20910;-80
2022/12/17 18:21:26;;;;;;;4.15;3.75;;;;;;;1.51;100.00;99238.94;1796582;78;21075;-88
2022/12/17 18:23:55;;;;;;;5.75;5.25;;;;;;;1.51;100.00;99262.28;1791041;78;21957;-83
2022/12/17 18:26:23;;;;;;;5.35;3.62;;;;;;;1.52;100.00;99267.08;1742486;80;21091;-83
2022/12/17 18:28:50;;;;;;;4.58;4.12;;;;;;;1.52;100.00;99282.47;1755198;80;21082;-87
2022/12/17 18:31:21;;;;;;;6.45;3.42;;;;;;;1.54;100.00;99298.97;1759545;80;20987;-86
2022/12/17 18:33:51;;;;;;;3.77;3.47;;;;;;;1.52;100.00;99282.47;1762040;80;21127;-83
2022/12/17 18:36:24;;;;;;;3.98;3.67;;;;;;;1.51;100.00;99292.76;1754832;80;21982;-85
2022/12/17 18:38:58;;;;;;;3.87;3.55;;;;;;;1.53;100.00;99294.71;1744712;80;21542;-82
2022/12/17 18:44:10;;;;;;;3.90;3.50;;;;;;;1.59;100.00;99304.98;1760573;80;20938;-87
2022/12/17 18:46:37;;;;;;;5.00;4.17;;;;;;;1.60;100.00;99292.87;1755818;80;20981;-87
2022/12/17 18:49:07;;;;;;;4.53;2.77;;;;;;;1.61;100.00;99326.82;1755958;80;21121;-83
2022/12/17 18:51:34;;;;;;;3.37;3.05;;;;;;;1.61;100.00;99313.06;1758781;80;21069;-87
2022/12/17 18:54:02;;;;;;;3.90;2.90;;;;;;;1.63;100.00;99306.25;1734249;81;21098;-87
2022/12/17 18:56:29;;;;;;;2.62;2.42;;;;;;;1.58;100.00;99331.20;1760630;80;21483;-87
2022/12/17 18:58:55;;;;;;;2.80;2.33;;;;;;;1.59;100.00;99336.79;1754011;80;21502;-87
2022/12/17 19:01:28;;;;;;;2.58;2.47;;;;;;;1.56;100.00;99352.59;1747857;81;21253;-84
2022/12/17 19:03:55;;;;;;;2.60;2.37;;;;;;;1.56;100.00;99339.85;1747755;80;20987;-81
2022/12/17 19:06:22;;;;;;;2.60;2.40;;;;;;;1.54;100.00;99337.39;1761180;80;21015;-85
2022/12/17 19:08:50;;;;;;;3.02;2.83;;;;;;;1.55;100.00;99360.73;1763628;81;21122;-84
2022/12/17 19:11:19;;;;;;;2.15;2.05;;;;;;;1.54;100.00;99367.05;1762723;80;21004;-83
2022/12/17 19:13:46;;;;;;;3.40;2.20;;;;;;;1.54;100.00;99376.32;1761868;80;21088;-85
2022/12/17 19:16:16;;;;;;;3.58;2.55;;;;;;;1.54;100.00;99379.80;1762196;80;20965;-86
2022/12/17 19:18:42;;;;;;;2.05;1.95;;;;;;;1.52;100.00;99361.97;1748389;80;21046;-83
2022/12/17 19:21:13;;;;;;;4.42;3.12;;;;;;;1.53;100.00;99382.16;1749094;80;20970;-85
2022/12/17 19:23:40;;;;;;;3.17;2.87;;;;;;;1.53;100.00;99383.48;1733547;81;21513;-82
2022/12/17 19:26:09;;;;;;;2.33;2.10;;;;;;;1.52;100.00;99391.63;1763060;80;22523;-84
2022/12/17 19:28:36;;;;;;;2.83;2.55;;;;;;;1.50;100.00;99379.06;1757630;80;20912;-86
2022/12/17 19:31:03;;;;;;;1.90;1.80;;;;;;;1.47;100.00;99391.40;1771320;79;21012;-84
2022/12/17 19:33:29;;;;;;;1.95;1.85;;;;;;;1.45;100.00;99365.09;1769712;80;20964;-77
2022/12/17 19:36:02;;;;;;;2.58;2.37;;;;;;;1.45;100.00;99394.23;1791545;80;21023;-80
2022/12/17 19:38:32;;;;;;;2.17;2.08;;;;;;;1.45;100.00;99408.81;1778253;80;21333;-80
2022/12/17 19:41:09;;;;;;;2.33;2.17;;;;;;;1.40;100.00;99411.23;1797552;78;20986;-81
2022/12/17 19:43:36;;;;;;;2.45;2.05;;;;;;;1.42;100.00;99426.44;1737609;81;20931;-79
2022/12/17 19:46:09;;;;;;;2.20;1.87;;;;;;;1.39;100.00;99452.52;1752534;81;21047;-81
2022/12/17 19:48:37;;;;;;;2.90;2.30;;;;;;;1.38;100.00;99472.08;1760149;79;21076;-79
2022/12/17 19:53:57;;;;;;;1.85;1.72;;;;;;;1.36;100.00;99484.18;1728243;81;21022;-78
2022/12/17 19:56:28;;;;;;;1.50;1.40;;;;;;;1.39;100.00;99498.88;1742920;80;21008;-80
2022/12/17 19:59:00;;;;;;;2.55;2.10;;;;;;;1.37;100.00;99482.36;1715448;81;21029;-81
2022/12/17 20:01:32;;;;;;;2.05;1.85;;;;;;;1.36;100.00;99503.23;1736829;80;21010;-79
2022/12/17 20:04:00;;;;;;;2.37;2.00;;;;;;;1.36;100.00;99497.93;1742572;81;22146;-78
2022/12/17 20:06:31;;;;;;;1.77;1.67;;;;;;;1.38;100.00;99486.64;1753419;80;21010;-80
2022/12/17 20:09:03;;;;;;;1.87;1.77;;;;;;;1.38;100.00;99495.91;1759192;80;21075;-80
2022/12/17 20:11:34;;;;;;;3.47;2.55;;;;;;;1.40;100.00;99502.64;1731482;81;20983;-80
2022/12/17 20:14:19;;;;;;;2.00;1.87;;;;;;;1.38;100.00;99490.11;1752653;81;21805;-79
2022/12/17 20:17:09;;;;;;;2.10;2.00;;;;;;;1.35;100.00;99490.48;1728867;82;21042;-74
2022/12/17 20:19:48;;;;;;;1.70;1.60;;;;;;;1.36;100.00;99511.17;1737017;81;22529;-80
2022/12/17 20:22:24;;;;;;;2.60;2.25;;;;;;;1.36;100.00;99527.07;1729455;81;21030;-80
2022/12/17 20:24:58;;;;;;;3.02;2.83;;;;;;;1.36;100.00;99543.79;1741880;81;21003;-79
2022/12/17 20:27:32;;;;;;;3.05;2.67;;;;;;;1.36;100.00;99534.52;1729424;81;21389;-79
2022/12/17 20:30:01;;;;;;;4.20;3.02;;;;;;;1.37;100.00;99549.91;1707775;82;21165;-79
2022/12/17 20:32:27;;;;;;;2.83;2.22;;;;;;;1.38;100.00;99554.20;1730320;80;20975;-82
2022/12/17 20:34:54;;;;;;;2.60;2.40;;;;;;;1.37;100.00;99554.70;1737117;80;21034;-81
2022/12/17 20:37:20;;;;;;;2.12;1.95;;;;;;;1.39;100.00;99553.98;1737145;80;20982;-78
2022/12/17 20:39:47;;;;;;;2.67;2.47;;;;;;;1.40;100.00;99563.58;1764770;80;21013;-80
2022/12/17 20:42:16;;;;;;;2.60;2.40;;;;;;;1.42;100.00;99554.13;1761549;81;21127;-78
2022/12/17 20:44:43;;;;;;;2.30;2.10;;;;;;;1.41;100.00;99575.00;1743594;81;20989;-78
2022/12/17 20:47:10;;;;;;;2.37;2.17;;;;;;;1.41;100.00;99565.73;1731701;81;21043;-76
2022/12/17 20:49:36;;;;;;;3.35;2.92;;;;;;;1.40;100.00;99581.30;1732269;82;21118;-78
2022/12/17 20:52:03;;;;;;;2.10;2.00;;;;;;;1.40;100.00;99584.78;1714053;81;21094;-78
2022/12/17 20:54:30;;;;;;;2.50;2.30;;;;;;;1.41;100.00;99594.38;1742951;81;21322;-80
2022/12/17 20:56:56;;;;;;;3.58;2.50;;;;;;;1.44;100.00;99589.20;1763927;80;21001;-80
2022/12/17 20:59:23;;;;;;;2.37;2.17;;;;;;;1.47;100.00;99593.61;1746097;80;20991;-79
2022/12/17 21:01:50;;;;;;;2.60;2.40;;;;;;;1.47;100.00;99602.88;1766376;80;20912;-80
2022/12/17 21:04:16;;;;;;;2.12;2.02;;;;;;;1.45;100.00;99598.27;1772680;80;21034;-78
2022/12/17 21:06:45;;;;;;;2.60;2.40;;;;;;;1.48;100.00;99601.05;1771481;80;21141;-80
2022/12/17 21:09:12;;;;;;;2.60;2.40;;;;;;;1.52;100.00;99619.52;1771031;81;21023;-81
2022/12/17 21:11:39;;;;;;;2.33;2.22;;;;;;;1.52;100.00;99614.22;1751668;80;20884;-81
2022/12/17 21:14:10;;;;;;;2.75;2.52;;;;;;;1.49;100.00;99648.54;1735411;81;20936;-78
2022/12/17 21:16:37;;;;;;;2.33;2.12;;;;;;;1.47;100.00;99628.56;1742986;81;21023;-79
2022/12/17 21:19:05;;;;;;;2.80;2.50;;;;;;;1.43;100.00;99602.96;1787598;80;21966;-79
2022/12/17 21:21:34;;;;;;;2.95;2.60;;;;;;;1.42;100.00;99627.81;1764360;80;21520;-79
2022/12/17 21:24:02;;;;;;;2.80;2.60;;;;;;;1.42;100.00;99621.19;1740738;81;21080;-78
2022/12/17 21:26:33;;;;;;;2.65;2.45;;;;;;;1.44;100.00;99624.98;1760948;80;20991;-77
2022/12/17 21:29:00;;;;;;;5.53;2.92;;;;;;;1.44;100.00;99639.55;1755736;80;21495;-79
2022/12/17 21:31:36;;;;;;;3.12;2.83;;;;;;;1.42;100.00;99651.66;1723230;83;21175;-77
2022/12/17 21:34:04;;;;;;;21.70;6.85;;;;;;;1.43;100.00;99651.16;1744505;80;22405;-78
2022/12/17 21:36:32;;;;;;;4.10;3.80;;;;;;;1.40;100.00;99666.91;1748490;81;20978;-78
2022/12/17 21:39:00;;;;;;;3.70;3.40;;;;;;;1.38;100.00;99663.66;1720505;81;21041;-78
2022/12/17 21:41:31;;;;;;;4.65;4.20;;;;;;;1.37;100.00;99658.53;1726514;82;21957;-78
2022/12/17 21:44:01;;;;;;;3.50;3.20;;;;;;;1.35;100.00;99649.95;1777275;80;21093;-75
2022/12/17 21:46:29;;;;;;;4.67;4.28;;;;;;;1.33;100.00;99668.70;1758788;80;20995;-77
2022/12/17 21:48:57;;;;;;;4.50;4.10;;;;;;;1.29;100.00;99672.25;1733633;81;21070;-78
2022/12/17 21:51:25;;;;;;;4.80;3.67;;;;;;;1.31;100.00;99664.09;1722048;83;20919;-79
2022/12/17 21:53:54;;;;;;;5.30;3.90;;;;;;;1.34;100.00;99682.77;1728289;81;22436;-76
2022/12/17 21:56:21;;;;;;;4.25;3.85;;;;;;;1.32;100.00;99685.61;1763186;81;21153;-78
2022/12/17 21:58:47;;;;;;;5.50;5.00;;;;;;;1.29;100.00;99687.32;1752038;80;21520;-78
2022/12/17 22:01:17;;;;;;;5.95;4.50;;;;;;;1.29;100.00;99702.72;1770575;81;21553;-77
2022/12/17 22:03:45;;;;;;;4.97;4.42;;;;;;;1.26;100.00;99738.02;1761869;80;21586;-77
2022/12/17 22:06:14;;;;;;;5.22;4.75;;;;;;;1.25;100.00;99708.55;1737898;82;21055;-79
2022/12/17 22:08:41;;;;;;;6.85;6.15;;;;;;;1.24;100.00;99715.70;1710852;82;21089;-76
2022/12/17 22:11:13;;;;;;;6.03;5.53;;;;;;;1.20;100.00;99735.61;1746882;81;21587;-73
2022/12/17 22:16:25;;;;;;;6.90;6.08;;;;;;;1.13;100.00;99724.64;1787558;80;20933;-73
2022/12/17 22:18:52;;;;;;;7.65;6.33;;;;;;;1.10;100.00;99737.77;1763387;81;21028;-74
2022/12/17 22:21:20;;;;;;;9.45;7.35;;;;;;;1.07;100.00;99734.16;1753680;81;21257;-77
2022/12/17 22:23:47;;;;;;;11.20;8.13;;;;;;;1.03;100.00;99742.16;1726718;81;20947;-79
2022/12/17 22:26:15;;;;;;;8.45;6.95;;;;;;;0.96;100.00;99741.25;1729410;81;21070;-77
2022/12/17 22:28:47;;;;;;;8.38;7.62;;;;;;;0.94;100.00;99751.73;1736093;82;21047;-79
2022/12/17 22:33:59;;;;;;;8.95;7.92;;;;;;;0.84;100.00;99813.73;1751505;80;21228;-78
2022/12/17 22:36:30;;;;;;;12.85;10.23;;;;;;;0.80;100.00;99787.31;1759302;80;21014;-73
2022/12/17 22:39:00;;;;;;;11.00;8.93;;;;;;;0.78;100.00;99791.96;1728229;82;21505;-70
2022/12/17 22:44:12;;;;;;;12.23;8.15;;;;;;;0.72;100.00;99800.63;1740082;82;21044;-81
2022/12/17 22:46:40;;;;;;;9.18;7.90;;;;;;;0.67;100.00;99817.56;1748509;81;21890;-79
2022/12/17 22:49:07;;;;;;;9.30;8.00;;;;;;;0.67;100.00;99795.06;1730784;81;20991;-87
2022/12/17 22:51:33;;;;;;;9.18;8.18;;;;;;;0.67;100.00;99800.36;1713313;83;20984;-78
2022/12/17 22:54:01;;;;;;;11.35;7.92;;;;;;;0.69;100.00;99809.45;1727568;81;21147;-81
2022/12/17 22:56:28;;;;;;;10.35;9.35;;;;;;;0.69;100.00;99809.45;1707896;82;21111;-87
2022/12/17 22:58:54;;;;;;;13.85;9.55;;;;;;;0.69;100.00;99820.03;1689886;84;21283;-71
2022/12/17 23:01:21;;;;;;;10.95;8.43;;;;;;;0.69;100.00;99843.36;1697396;82;20993;-72
2022/12/17 23:03:48;;;;;;;13.48;10.98;;;;;;;0.64;100.00;99849.70;1710816;82;21799;-72
2022/12/17 23:06:16;;;;;;;12.53;10.28;;;;;;;0.62;100.00;99853.55;1695236;83;21913;-75
2022/12/17 23:08:43;;;;;;;11.68;10.00;;;;;;;0.59;100.00;99860.50;1730478;82;21392;-74
2022/12/17 23:11:16;;;;;;;14.60;9.55;;;;;;;0.57;100.00;99846.65;1726150;82;21121;-74
2022/12/17 23:13:43;;;;;;;11.70;10.40;;;;;;;0.55;100.00;99873.78;1658812;85;21032;-75
2022/12/17 23:16:12;;;;;;;12.50;9.20;;;;;;;0.49;100.00;99867.38;1681167;82;20942;-73
2022/12/17 23:18:42;;;;;;;14.53;10.45;;;;;;;0.44;100.00;99881.15;1717221;82;21085;-74
2022/12/17 23:21:15;;;;;;;12.18;10.38;;;;;;;0.39;100.00;99871.61;1723749;82;21130;-72
2022/12/17 23:23:41;;;;;;;13.85;9.95;;;;;;;0.36;100.00;99866.69;1724650;82;21218;-72
2022/12/17 23:26:12;;;;;;;11.25;9.28;;;;;;;0.31;100.00;99892.85;1727432;82;21011;-72
2022/12/17 23:28:38;;;;;;;15.20;10.28;;;;;;;0.27;100.00;99894.71;1713883;82;21398;-73
2022/12/17 23:31:12;;;;;;;11.30;9.58;;;;;;;0.25;100.00;99890.09;1718419;82;21071;-79
2022/12/17 23:33:38;;;;;;;12.90;10.00;;;;;;;0.22;100.00;99887.31;1718717;82;21534;-79
2022/12/17 23:36:07;;;;;;;13.30;11.08;;;;;;;0.21;100.00;99886.98;1722026;83;21642;-78
2022/12/17 23:38:34;;;;;;;15.88;12.95;;;;;;;0.19;100.00;99907.48;1726717;83;21006;-80
2022/12/17 23:41:12;;;;;;;14.45;11.28;;;;;;;0.13;100.00;99910.86;1727318;82;21007;-80
2022/12/17 23:43:43;;;;;;;11.78;9.48;;;;;;;0.10;100.00;99895.83;1698300;82;20986;-80
2022/12/17 23:46:10;;;;;;;11.25;9.68;;;;;;;0.06;100.00;99903.30;1720490;82;21082;-81
2022/12/17 23:48:40;;;;;;;10.65;9.60;;;;;;;0.05;100.00;99908.27;1724306;83;21042;-81
2022/12/17 23:51:08;;;;;;;13.58;11.63;;;;;;;0.07;100.00;99908.92;1731055;82;21041;-82
2022/12/17 23:53:35;;;;;;;11.10;10.00;;;;;;;0.08;100.00;99927.76;1731371;80;21036;-80
2022/12/17 23:56:10;;;;;;;12.70;9.33;;;;;;;0.05;100.00;99913.55;1763444;81;20977;-81
2022/12/17 23:58:38;;;;;;;12.03;9.23;;;;;;;0.02;100.00;99916.55;1729187;82;21024;-80
